sensor_id;sensor_type;location;lat;lon;timestamp;P1;durP1;ratioP1;P2;durP2;ratioP2
10201;SDS011;5143;42.584;23.164;2024-03-07T00:02:20;5.67;;;4.37;;
10201;SDS011;5143;42.584;23.164;2024-03-07T00:04:48;5.67;;;4.43;;
10201;SDS011;5143;42.584;23.164;2024-03-07T00:07:16;6.57;;;4.50;;
10201;SDS011;5143;42.584;23.164;2024-03-07T00:09:43;6.53;;;4.80;;
10201;SDS011;5143;42.584;23.164;2024-03-07T00:12:09;7.67;;;5.13;;
10201;SDS011;5143;42.584;23.164;2024-03-07T00:14:37;6.77;;;4.70;;
10201;SDS011;5143;42.584;23.164;2024-03-07T00:17:03;6.83;;;5.07;;
10201;SDS011;5143;42.584;23.164;2024-03-07T00:19:30;7.57;;;4.73;;
10201;SDS011;5143;42.584;23.164;2024-03-07T00:21:56;8.67;;;4.83;;
10201;SDS011;5143;42.584;23.164;2024-03-07T00:24:24;6.57;;;5.30;;
10201;SDS011;5143;42.584;23.164;2024-03-07T00:26:52;6.10;;;5.20;;
10201;SDS011;5143;42.584;23.164;2024-03-07T00:29:19;9.10;;;6.33;;
10201;SDS011;5143;42.584;23.164;2024-03-07T00:31:45;7.23;;;5.20;;
10201;SDS011;5143;42.584;23.164;2024-03-07T00:34:12;7.60;;;5.50;;
10201;SDS011;5143;42.584;23.164;2024-03-07T00:36:41;7.73;;;5.10;;
10201;SDS011;5143;42.584;23.164;2024-03-07T00:39:08;7.83;;;5.40;;
10201;SDS011;5143;42.584;23.164;2024-03-07T00:41:38;6.10;;;5.10;;
10201;SDS011;5143;42.584;23.164;2024-03-07T00:44:05;6.60;;;4.73;;
10201;SDS011;5143;42.584;23.164;2024-03-07T00:46:34;5.90;;;4.50;;
10201;SDS011;5143;42.584;23.164;2024-03-07T00:49:01;6.50;;;4.13;;
10201;SDS011;5143;42.584;23.164;2024-03-07T00:51:27;5.17;;;4.67;;
10201;SDS011;5143;42.584;23.164;2024-03-07T00:53:53;6.63;;;4.27;;
10201;SDS011;5143;42.584;23.164;2024-03-07T00:56:19;4.80;;;4.00;;
10201;SDS011;5143;42.584;23.164;2024-03-07T00:58:47;5.30;;;3.97;;
10201;SDS011;5143;42.584;23.164;2024-03-07T01:01:14;7.50;;;3.53;;
10201;SDS011;5143;42.584;23.164;2024-03-07T01:03:41;4.83;;;3.17;;
10201;SDS011;5143;42.584;23.164;2024-03-07T01:06:07;4.13;;;2.70;;
10201;SDS011;5143;42.584;23.164;2024-03-07T01:08:34;6.63;;;4.37;;
10201;SDS011;5143;42.584;23.164;2024-03-07T01:11:01;2.80;;;2.47;;
10201;SDS011;5143;42.584;23.164;2024-03-07T01:13:34;4.30;;;2.20;;
10201;SDS011;5143;42.584;23.164;2024-03-07T01:16:02;3.63;;;2.30;;
10201;SDS011;5143;42.584;23.164;2024-03-07T01:18:28;3.57;;;1.60;;
10201;SDS011;5143;42.584;23.164;2024-03-07T01:20:55;1.70;;;1.40;;
10201;SDS011;5143;42.584;23.164;2024-03-07T01:23:21;2.67;;;1.40;;
10201;SDS011;5143;42.584;23.164;2024-03-07T01:25:48;1.33;;;0.93;;
10201;SDS011;5143;42.584;23.164;2024-03-07T01:28:14;1.37;;;0.90;;
10201;SDS011;5143;42.584;23.164;2024-03-07T01:30:42;1.20;;;0.87;;
10201;SDS011;5143;42.584;23.164;2024-03-07T01:33:10;1.10;;;0.77;;
10201;SDS011;5143;42.584;23.164;2024-03-07T01:35:36;1.50;;;1.00;;
10201;SDS011;5143;42.584;23.164;2024-03-07T01:38:03;1.23;;;0.90;;
10201;SDS011;5143;42.584;23.164;2024-03-07T01:40:29;1.00;;;0.67;;
10201;SDS011;5143;42.584;23.164;2024-03-07T01:42:56;0.80;;;0.47;;
10201;SDS011;5143;42.584;23.164;2024-03-07T01:45:22;2.23;;;1.50;;
10201;SDS011;5143;42.584;23.164;2024-03-07T01:47:49;2.37;;;0.90;;
10201;SDS011;5143;42.584;23.164;2024-03-07T01:50:17;1.47;;;1.00;;
10201;SDS011;5143;42.584;23.164;2024-03-07T01:52:43;1.00;;;0.80;;
10201;SDS011;5143;42.584;23.164;2024-03-07T01:55:10;1.33;;;0.80;;
10201;SDS011;5143;42.584;23.164;2024-03-07T01:57:38;0.90;;;0.63;;
10201;SDS011;5143;42.584;23.164;2024-03-07T02:00:05;1.20;;;0.70;;
10201;SDS011;5143;42.584;23.164;2024-03-07T02:02:32;1.93;;;0.70;;
10201;SDS011;5143;42.584;23.164;2024-03-07T02:04:59;1.13;;;0.63;;
10201;SDS011;5143;42.584;23.164;2024-03-07T02:07:27;1.00;;;0.70;;
10201;SDS011;5143;42.584;23.164;2024-03-07T02:09:59;0.80;;;0.60;;
10201;SDS011;5143;42.584;23.164;2024-03-07T02:12:25;1.07;;;0.40;;
10201;SDS011;5143;42.584;23.164;2024-03-07T02:14:52;1.13;;;0.57;;
10201;SDS011;5143;42.584;23.164;2024-03-07T02:17:18;0.80;;;0.47;;
10201;SDS011;5143;42.584;23.164;2024-03-07T02:19:45;0.70;;;0.33;;
10201;SDS011;5143;42.584;23.164;2024-03-07T02:22:13;6.90;;;1.40;;
10201;SDS011;5143;42.584;23.164;2024-03-07T02:24:40;2.20;;;1.57;;
10201;SDS011;5143;42.584;23.164;2024-03-07T02:27:06;1.30;;;0.73;;
10201;SDS011;5143;42.584;23.164;2024-03-07T02:29:33;1.27;;;0.80;;
10201;SDS011;5143;42.584;23.164;2024-03-07T02:32:01;0.80;;;0.53;;
10201;SDS011;5143;42.584;23.164;2024-03-07T02:34:27;1.00;;;0.50;;
10201;SDS011;5143;42.584;23.164;2024-03-07T02:36:54;1.23;;;0.70;;
10201;SDS011;5143;42.584;23.164;2024-03-07T02:39:22;0.90;;;0.40;;
10201;SDS011;5143;42.584;23.164;2024-03-07T02:41:49;0.93;;;0.40;;
10201;SDS011;5143;42.584;23.164;2024-03-07T02:44:16;0.90;;;0.40;;
10201;SDS011;5143;42.584;23.164;2024-03-07T02:46:42;1.73;;;0.50;;
10201;SDS011;5143;42.584;23.164;2024-03-07T02:49:09;0.90;;;0.40;;
10201;SDS011;5143;42.584;23.164;2024-03-07T02:51:35;0.90;;;0.27;;
10201;SDS011;5143;42.584;23.164;2024-03-07T02:54:02;0.70;;;0.40;;
10201;SDS011;5143;42.584;23.164;2024-03-07T02:56:32;1.00;;;0.63;;
10201;SDS011;5143;42.584;23.164;2024-03-07T02:58:58;3.23;;;0.50;;
10201;SDS011;5143;42.584;23.164;2024-03-07T03:01:24;3.50;;;1.40;;
10201;SDS011;5143;42.584;23.164;2024-03-07T03:03:51;1.63;;;1.10;;
10201;SDS011;5143;42.584;23.164;2024-03-07T03:06:17;3.30;;;1.60;;
10201;SDS011;5143;42.584;23.164;2024-03-07T03:08:45;1.80;;;1.00;;
10201;SDS011;5143;42.584;23.164;2024-03-07T03:11:12;2.97;;;1.30;;
10201;SDS011;5143;42.584;23.164;2024-03-07T03:13:40;3.23;;;2.20;;
10201;SDS011;5143;42.584;23.164;2024-03-07T03:16:07;3.70;;;2.20;;
10201;SDS011;5143;42.584;23.164;2024-03-07T03:18:33;1.53;;;1.13;;
10201;SDS011;5143;42.584;23.164;2024-03-07T03:21:00;0.90;;;0.53;;
10201;SDS011;5143;42.584;23.164;2024-03-07T03:23:27;2.43;;;1.50;;
10201;SDS011;5143;42.584;23.164;2024-03-07T03:25:53;1.70;;;0.80;;
10201;SDS011;5143;42.584;23.164;2024-03-07T03:28:20;0.73;;;0.60;;
10201;SDS011;5143;42.584;23.164;2024-03-07T03:30:48;0.80;;;0.60;;
10201;SDS011;5143;42.584;23.164;2024-03-07T03:33:15;2.93;;;1.47;;
10201;SDS011;5143;42.584;23.164;2024-03-07T03:35:41;2.23;;;1.43;;
10201;SDS011;5143;42.584;23.164;2024-03-07T03:38:08;0.90;;;0.60;;
10201;SDS011;5143;42.584;23.164;2024-03-07T03:40:35;1.53;;;0.60;;
10201;SDS011;5143;42.584;23.164;2024-03-07T03:43:02;1.77;;;1.00;;
10201;SDS011;5143;42.584;23.164;2024-03-07T03:45:28;3.30;;;2.17;;
10201;SDS011;5143;42.584;23.164;2024-03-07T03:47:58;3.33;;;2.37;;
10201;SDS011;5143;42.584;23.164;2024-03-07T03:50:25;2.93;;;2.13;;
10201;SDS011;5143;42.584;23.164;2024-03-07T03:52:51;3.23;;;1.97;;
10201;SDS011;5143;42.584;23.164;2024-03-07T03:55:17;2.70;;;1.70;;
10201;SDS011;5143;42.584;23.164;2024-03-07T03:57:45;2.90;;;1.73;;
10201;SDS011;5143;42.584;23.164;2024-03-07T04:00:13;2.53;;;2.03;;
10201;SDS011;5143;42.584;23.164;2024-03-07T04:02:39;5.83;;;3.10;;
10201;SDS011;5143;42.584;23.164;2024-03-07T04:05:08;4.93;;;2.83;;
10201;SDS011;5143;42.584;23.164;2024-03-07T04:07:35;6.93;;;3.20;;
10201;SDS011;5143;42.584;23.164;2024-03-07T04:10:02;7.03;;;3.17;;
10201;SDS011;5143;42.584;23.164;2024-03-07T04:12:28;4.90;;;3.67;;
10201;SDS011;5143;42.584;23.164;2024-03-07T04:14:55;7.00;;;3.80;;
10201;SDS011;5143;42.584;23.164;2024-03-07T04:17:22;5.50;;;4.07;;
10201;SDS011;5143;42.584;23.164;2024-03-07T04:19:48;5.83;;;4.30;;
10201;SDS011;5143;42.584;23.164;2024-03-07T04:22:17;2.97;;;1.63;;
10201;SDS011;5143;42.584;23.164;2024-03-07T04:24:44;2.73;;;1.93;;
10201;SDS011;5143;42.584;23.164;2024-03-07T04:27:11;3.97;;;2.37;;
10201;SDS011;5143;42.584;23.164;2024-03-07T04:29:37;4.73;;;3.30;;
10201;SDS011;5143;42.584;23.164;2024-03-07T04:32:04;4.07;;;3.20;;
10201;SDS011;5143;42.584;23.164;2024-03-07T04:34:30;5.20;;;3.60;;
10201;SDS011;5143;42.584;23.164;2024-03-07T04:36:57;5.17;;;3.17;;
10201;SDS011;5143;42.584;23.164;2024-03-07T04:39:25;4.90;;;3.10;;
10201;SDS011;5143;42.584;23.164;2024-03-07T04:41:57;4.53;;;3.80;;
10201;SDS011;5143;42.584;23.164;2024-03-07T04:44:24;5.97;;;4.20;;
10201;SDS011;5143;42.584;23.164;2024-03-07T04:46:50;5.77;;;4.40;;
10201;SDS011;5143;42.584;23.164;2024-03-07T04:49:20;5.83;;;5.23;;
10201;SDS011;5143;42.584;23.164;2024-03-07T04:51:47;6.00;;;4.53;;
10201;SDS011;5143;42.584;23.164;2024-03-07T04:54:13;9.43;;;6.40;;
10201;SDS011;5143;42.584;23.164;2024-03-07T04:56:41;5.33;;;4.83;;
10201;SDS011;5143;42.584;23.164;2024-03-07T04:59:07;7.10;;;5.00;;
10201;SDS011;5143;42.584;23.164;2024-03-07T05:01:36;11.17;;;7.50;;
10201;SDS011;5143;42.584;23.164;2024-03-07T05:04:03;10.53;;;6.57;;
10201;SDS011;5143;42.584;23.164;2024-03-07T05:06:29;8.03;;;5.33;;
10201;SDS011;5143;42.584;23.164;2024-03-07T05:08:58;9.13;;;5.93;;
10201;SDS011;5143;42.584;23.164;2024-03-07T05:11:25;11.83;;;6.47;;
10201;SDS011;5143;42.584;23.164;2024-03-07T05:13:53;8.77;;;6.07;;
10201;SDS011;5143;42.584;23.164;2024-03-07T05:16:19;9.73;;;6.73;;
10201;SDS011;5143;42.584;23.164;2024-03-07T05:18:46;9.77;;;6.60;;
10201;SDS011;5143;42.584;23.164;2024-03-07T05:21:13;9.97;;;6.80;;
10201;SDS011;5143;42.584;23.164;2024-03-07T05:23:59;12.73;;;6.83;;
10201;SDS011;5143;42.584;23.164;2024-03-07T05:26:26;7.10;;;4.13;;
10201;SDS011;5143;42.584;23.164;2024-03-07T05:28:54;4.37;;;3.47;;
10201;SDS011;5143;42.584;23.164;2024-03-07T05:31:21;4.80;;;3.20;;
10201;SDS011;5143;42.584;23.164;2024-03-07T05:33:47;3.93;;;2.87;;
10201;SDS011;5143;42.584;23.164;2024-03-07T05:36:14;4.00;;;2.90;;
10201;SDS011;5143;42.584;23.164;2024-03-07T05:38:40;4.40;;;2.90;;
10201;SDS011;5143;42.584;23.164;2024-03-07T05:41:09;4.23;;;2.57;;
10201;SDS011;5143;42.584;23.164;2024-03-07T05:43:35;4.47;;;2.97;;
10201;SDS011;5143;42.584;23.164;2024-03-07T05:46:03;4.57;;;2.83;;
10201;SDS011;5143;42.584;23.164;2024-03-07T05:48:31;3.33;;;2.73;;
10201;SDS011;5143;42.584;23.164;2024-03-07T05:50:58;3.73;;;2.87;;
10201;SDS011;5143;42.584;23.164;2024-03-07T05:53:25;8.70;;;4.63;;
10201;SDS011;5143;42.584;23.164;2024-03-07T05:55:51;16.07;;;7.03;;
10201;SDS011;5143;42.584;23.164;2024-03-07T05:58:18;7.03;;;3.60;;
10201;SDS011;5143;42.584;23.164;2024-03-07T06:00:45;5.13;;;3.80;;
10201;SDS011;5143;42.584;23.164;2024-03-07T06:03:16;5.90;;;3.80;;
10201;SDS011;5143;42.584;23.164;2024-03-07T06:05:42;6.23;;;3.87;;
10201;SDS011;5143;42.584;23.164;2024-03-07T06:08:13;6.57;;;3.90;;
10201;SDS011;5143;42.584;23.164;2024-03-07T06:10:41;8.47;;;4.53;;
10201;SDS011;5143;42.584;23.164;2024-03-07T06:13:08;5.33;;;4.07;;
10201;SDS011;5143;42.584;23.164;2024-03-07T06:15:34;5.83;;;2.93;;
10201;SDS011;5143;42.584;23.164;2024-03-07T06:18:02;4.50;;;3.30;;
10201;SDS011;5143;42.584;23.164;2024-03-07T06:20:29;6.97;;;3.67;;
10201;SDS011;5143;42.584;23.164;2024-03-07T06:22:57;5.13;;;3.60;;
10201;SDS011;5143;42.584;23.164;2024-03-07T06:25:24;7.43;;;4.90;;
10201;SDS011;5143;42.584;23.164;2024-03-07T06:28:01;9.53;;;7.27;;
10201;SDS011;5143;42.584;23.164;2024-03-07T06:30:34;6.70;;;5.67;;
10201;SDS011;5143;42.584;23.164;2024-03-07T06:33:01;6.67;;;5.23;;
10201;SDS011;5143;42.584;23.164;2024-03-07T06:35:27;9.00;;;5.33;;
10201;SDS011;5143;42.584;23.164;2024-03-07T06:37:55;6.43;;;5.03;;
10201;SDS011;5143;42.584;23.164;2024-03-07T06:40:21;7.43;;;5.33;;
10201;SDS011;5143;42.584;23.164;2024-03-07T06:42:48;14.90;;;10.50;;
10201;SDS011;5143;42.584;23.164;2024-03-07T06:45:14;12.77;;;7.83;;
10201;SDS011;5143;42.584;23.164;2024-03-07T06:47:41;5.80;;;4.40;;
10201;SDS011;5143;42.584;23.164;2024-03-07T06:50:08;17.60;;;8.47;;
10201;SDS011;5143;42.584;23.164;2024-03-07T06:52:39;6.33;;;3.80;;
10201;SDS011;5143;42.584;23.164;2024-03-07T06:55:08;3.57;;;2.90;;
10201;SDS011;5143;42.584;23.164;2024-03-07T06:57:34;4.00;;;2.10;;
10201;SDS011;5143;42.584;23.164;2024-03-07T07:00:01;2.87;;;2.23;;
10201;SDS011;5143;42.584;23.164;2024-03-07T07:02:35;2.50;;;2.00;;
10201;SDS011;5143;42.584;23.164;2024-03-07T07:05:02;2.57;;;1.90;;
10201;SDS011;5143;42.584;23.164;2024-03-07T07:07:32;9.53;;;4.00;;
10201;SDS011;5143;42.584;23.164;2024-03-07T07:09:59;7.70;;;5.20;;
10201;SDS011;5143;42.584;23.164;2024-03-07T07:12:27;7.57;;;4.73;;
10201;SDS011;5143;42.584;23.164;2024-03-07T07:14:54;2.70;;;2.30;;
10201;SDS011;5143;42.584;23.164;2024-03-07T07:17:21;4.67;;;3.30;;
10201;SDS011;5143;42.584;23.164;2024-03-07T07:19:49;3.13;;;2.27;;
10201;SDS011;5143;42.584;23.164;2024-03-07T07:22:15;2.80;;;2.00;;
10201;SDS011;5143;42.584;23.164;2024-03-07T07:24:43;2.50;;;1.70;;
10201;SDS011;5143;42.584;23.164;2024-03-07T07:27:09;2.87;;;1.80;;
10201;SDS011;5143;42.584;23.164;2024-03-07T07:29:37;3.27;;;2.37;;
10201;SDS011;5143;42.584;23.164;2024-03-07T07:32:04;3.30;;;2.43;;
10201;SDS011;5143;42.584;23.164;2024-03-07T07:34:31;2.67;;;2.17;;
10201;SDS011;5143;42.584;23.164;2024-03-07T07:36:57;9.63;;;5.67;;
10201;SDS011;5143;42.584;23.164;2024-03-07T07:39:23;7.60;;;4.27;;
10201;SDS011;5143;42.584;23.164;2024-03-07T07:41:50;4.10;;;2.50;;
10201;SDS011;5143;42.584;23.164;2024-03-07T07:44:16;2.57;;;1.80;;
10201;SDS011;5143;42.584;23.164;2024-03-07T07:46:45;4.30;;;1.50;;
10201;SDS011;5143;42.584;23.164;2024-03-07T07:49:12;2.83;;;1.97;;
10201;SDS011;5143;42.584;23.164;2024-03-07T07:51:39;4.30;;;3.03;;
10201;SDS011;5143;42.584;23.164;2024-03-07T07:54:05;5.70;;;2.83;;
10201;SDS011;5143;42.584;23.164;2024-03-07T07:56:32;4.00;;;2.83;;
10201;SDS011;5143;42.584;23.164;2024-03-07T07:58:58;5.33;;;2.60;;
10201;SDS011;5143;42.584;23.164;2024-03-07T08:01:25;4.47;;;2.63;;
10201;SDS011;5143;42.584;23.164;2024-03-07T08:03:53;3.77;;;2.27;;
10201;SDS011;5143;42.584;23.164;2024-03-07T08:06:20;1.97;;;1.60;;
10201;SDS011;5143;42.584;23.164;2024-03-07T08:08:46;4.40;;;1.50;;
10201;SDS011;5143;42.584;23.164;2024-03-07T08:11:13;5.20;;;1.37;;
10201;SDS011;5143;42.584;23.164;2024-03-07T08:13:40;2.87;;;1.70;;
10201;SDS011;5143;42.584;23.164;2024-03-07T08:16:06;2.47;;;1.70;;
10201;SDS011;5143;42.584;23.164;2024-03-07T08:18:34;2.80;;;1.90;;
10201;SDS011;5143;42.584;23.164;2024-03-07T08:21:01;1.70;;;1.30;;
10201;SDS011;5143;42.584;23.164;2024-03-07T08:23:29;2.50;;;1.47;;
10201;SDS011;5143;42.584;23.164;2024-03-07T08:25:56;1.73;;;1.23;;
10201;SDS011;5143;42.584;23.164;2024-03-07T08:28:23;2.10;;;0.87;;
10201;SDS011;5143;42.584;23.164;2024-03-07T08:30:49;3.70;;;1.53;;
10201;SDS011;5143;42.584;23.164;2024-03-07T08:33:16;2.23;;;1.40;;
10201;SDS011;5143;42.584;23.164;2024-03-07T08:35:46;2.40;;;1.00;;
10201;SDS011;5143;42.584;23.164;2024-03-07T08:38:14;4.57;;;1.20;;
10201;SDS011;5143;42.584;23.164;2024-03-07T08:40:41;2.00;;;1.10;;
10201;SDS011;5143;42.584;23.164;2024-03-07T08:43:08;2.70;;;0.90;;
10201;SDS011;5143;42.584;23.164;2024-03-07T08:45:35;5.70;;;3.10;;
10201;SDS011;5143;42.584;23.164;2024-03-07T08:48:02;4.03;;;1.83;;
10201;SDS011;5143;42.584;23.164;2024-03-07T08:50:29;1.13;;;0.87;;
10201;SDS011;5143;42.584;23.164;2024-03-07T08:52:59;2.70;;;1.70;;
10201;SDS011;5143;42.584;23.164;2024-03-07T08:55:27;2.60;;;1.47;;
10201;SDS011;5143;42.584;23.164;2024-03-07T08:57:53;3.40;;;1.60;;
10201;SDS011;5143;42.584;23.164;2024-03-07T09:00:20;4.13;;;2.37;;
10201;SDS011;5143;42.584;23.164;2024-03-07T09:02:48;3.73;;;1.20;;
10201;SDS011;5143;42.584;23.164;2024-03-07T09:05:17;3.67;;;2.33;;
10201;SDS011;5143;42.584;23.164;2024-03-07T09:07:44;5.43;;;1.60;;
10201;SDS011;5143;42.584;23.164;2024-03-07T09:10:12;2.47;;;1.17;;
10201;SDS011;5143;42.584;23.164;2024-03-07T09:12:41;1.10;;;0.70;;
10201;SDS011;5143;42.584;23.164;2024-03-07T09:15:08;1.83;;;1.00;;
10201;SDS011;5143;42.584;23.164;2024-03-07T09:17:35;1.03;;;0.70;;
10201;SDS011;5143;42.584;23.164;2024-03-07T09:20:01;1.37;;;0.70;;
10201;SDS011;5143;42.584;23.164;2024-03-07T09:22:30;1.17;;;0.60;;
10201;SDS011;5143;42.584;23.164;2024-03-07T09:24:57;1.20;;;0.60;;
10201;SDS011;5143;42.584;23.164;2024-03-07T09:27:24;1.63;;;0.70;;
10201;SDS011;5143;42.584;23.164;2024-03-07T09:29:52;1.00;;;0.70;;
10201;SDS011;5143;42.584;23.164;2024-03-07T09:32:18;0.70;;;0.40;;
10201;SDS011;5143;42.584;23.164;2024-03-07T09:34:47;1.57;;;0.90;;
10201;SDS011;5143;42.584;23.164;2024-03-07T09:37:15;1.50;;;0.90;;
10201;SDS011;5143;42.584;23.164;2024-03-07T09:39:41;1.33;;;0.90;;
10201;SDS011;5143;42.584;23.164;2024-03-07T09:42:08;0.77;;;0.40;;
10201;SDS011;5143;42.584;23.164;2024-03-07T09:44:35;3.53;;;1.07;;
10201;SDS011;5143;42.584;23.164;2024-03-07T09:47:06;3.13;;;1.43;;
10201;SDS011;5143;42.584;23.164;2024-03-07T09:49:33;1.93;;;0.70;;
10201;SDS011;5143;42.584;23.164;2024-03-07T09:52:00;2.23;;;1.80;;
10201;SDS011;5143;42.584;23.164;2024-03-07T09:54:30;1.43;;;1.03;;
10201;SDS011;5143;42.584;23.164;2024-03-07T09:56:57;1.37;;;0.63;;
10201;SDS011;5143;42.584;23.164;2024-03-07T09:59:25;2.10;;;0.40;;
10201;SDS011;5143;42.584;23.164;2024-03-07T10:01:53;4.00;;;2.07;;
10201;SDS011;5143;42.584;23.164;2024-03-07T10:04:22;2.60;;;1.23;;
10201;SDS011;5143;42.584;23.164;2024-03-07T10:06:51;1.90;;;0.80;;
10201;SDS011;5143;42.584;23.164;2024-03-07T10:09:18;1.93;;;0.77;;
10201;SDS011;5143;42.584;23.164;2024-03-07T10:11:54;1.80;;;0.90;;
10201;SDS011;5143;42.584;23.164;2024-03-07T10:14:21;4.10;;;1.10;;
10201;SDS011;5143;42.584;23.164;2024-03-07T10:16:47;2.40;;;1.73;;
10201;SDS011;5143;42.584;23.164;2024-03-07T10:19:14;9.67;;;6.27;;
10201;SDS011;5143;42.584;23.164;2024-03-07T10:21:41;1.90;;;1.63;;
10201;SDS011;5143;42.584;23.164;2024-03-07T10:24:08;3.90;;;1.53;;
10201;SDS011;5143;42.584;23.164;2024-03-07T10:26:36;1.87;;;1.10;;
10201;SDS011;5143;42.584;23.164;2024-03-07T10:29:03;2.30;;;1.00;;
10201;SDS011;5143;42.584;23.164;2024-03-07T10:31:31;2.80;;;1.80;;
10201;SDS011;5143;42.584;23.164;2024-03-07T10:33:58;3.30;;;1.20;;
10201;SDS011;5143;42.584;23.164;2024-03-07T10:36:25;3.57;;;1.10;;
10201;SDS011;5143;42.584;23.164;2024-03-07T10:38:52;3.40;;;1.10;;
10201;SDS011;5143;42.584;23.164;2024-03-07T10:41:20;4.03;;;1.43;;
10201;SDS011;5143;42.584;23.164;2024-03-07T10:43:51;4.07;;;1.13;;
10201;SDS011;5143;42.584;23.164;2024-03-07T10:46:22;5.60;;;1.40;;
10201;SDS011;5143;42.584;23.164;2024-03-07T10:48:50;3.77;;;1.07;;
10201;SDS011;5143;42.584;23.164;2024-03-07T10:51:21;13.87;;;3.23;;
10201;SDS011;5143;42.584;23.164;2024-03-07T10:53:56;2.63;;;1.20;;
10201;SDS011;5143;42.584;23.164;2024-03-07T10:56:29;6.33;;;1.10;;
10201;SDS011;5143;42.584;23.164;2024-03-07T10:58:58;2.93;;;1.30;;
10201;SDS011;5143;42.584;23.164;2024-03-07T11:01:25;4.33;;;0.83;;
10201;SDS011;5143;42.584;23.164;2024-03-07T11:03:52;15.20;;;1.20;;
10201;SDS011;5143;42.584;23.164;2024-03-07T11:06:22;1.57;;;1.10;;
10201;SDS011;5143;42.584;23.164;2024-03-07T11:08:49;2.97;;;1.10;;
10201;SDS011;5143;42.584;23.164;2024-03-07T11:11:18;5.50;;;1.60;;
10201;SDS011;5143;42.584;23.164;2024-03-07T11:13:44;2.37;;;1.40;;
10201;SDS011;5143;42.584;23.164;2024-03-07T11:16:11;3.57;;;1.40;;
10201;SDS011;5143;42.584;23.164;2024-03-07T11:18:40;1.50;;;0.90;;
10201;SDS011;5143;42.584;23.164;2024-03-07T11:21:07;3.73;;;1.30;;
10201;SDS011;5143;42.584;23.164;2024-03-07T11:23:33;2.70;;;1.00;;
10201;SDS011;5143;42.584;23.164;2024-03-07T11:26:03;1.73;;;0.80;;
10201;SDS011;5143;42.584;23.164;2024-03-07T11:28:34;3.33;;;1.37;;
10201;SDS011;5143;42.584;23.164;2024-03-07T11:31:09;1.23;;;0.90;;
10201;SDS011;5143;42.584;23.164;2024-03-07T11:33:36;4.70;;;1.53;;
10201;SDS011;5143;42.584;23.164;2024-03-07T11:36:06;1.93;;;1.10;;
10201;SDS011;5143;42.584;23.164;2024-03-07T11:38:32;2.60;;;0.97;;
10201;SDS011;5143;42.584;23.164;2024-03-07T11:40:59;3.83;;;1.00;;
10201;SDS011;5143;42.584;23.164;2024-03-07T11:43:27;2.40;;;1.13;;
10201;SDS011;5143;42.584;23.164;2024-03-07T11:45:55;2.60;;;1.13;;
10201;SDS011;5143;42.584;23.164;2024-03-07T11:48:23;2.77;;;1.63;;
10201;SDS011;5143;42.584;23.164;2024-03-07T11:50:49;2.77;;;1.90;;
10201;SDS011;5143;42.584;23.164;2024-03-07T11:53:16;3.00;;;1.10;;
10201;SDS011;5143;42.584;23.164;2024-03-07T11:55:42;2.33;;;1.30;;
10201;SDS011;5143;42.584;23.164;2024-03-07T11:58:10;3.50;;;1.60;;
10201;SDS011;5143;42.584;23.164;2024-03-07T12:00:38;4.77;;;1.00;;
10201;SDS011;5143;42.584;23.164;2024-03-07T12:03:09;3.30;;;1.30;;
10201;SDS011;5143;42.584;23.164;2024-03-07T12:05:38;1.47;;;0.90;;
10201;SDS011;5143;42.584;23.164;2024-03-07T12:08:05;3.30;;;1.00;;
10201;SDS011;5143;42.584;23.164;2024-03-07T12:10:31;1.53;;;1.00;;
10201;SDS011;5143;42.584;23.164;2024-03-07T12:12:58;4.50;;;1.53;;
10201;SDS011;5143;42.584;23.164;2024-03-07T12:15:26;2.47;;;0.80;;
10201;SDS011;5143;42.584;23.164;2024-03-07T12:17:53;1.73;;;0.90;;
10201;SDS011;5143;42.584;23.164;2024-03-07T12:20:22;2.17;;;0.80;;
10201;SDS011;5143;42.584;23.164;2024-03-07T12:22:55;3.73;;;2.70;;
10201;SDS011;5143;42.584;23.164;2024-03-07T12:25:21;4.33;;;2.37;;
10201;SDS011;5143;42.584;23.164;2024-03-07T12:27:58;1.77;;;0.80;;
10201;SDS011;5143;42.584;23.164;2024-03-07T12:30:27;2.60;;;1.30;;
10201;SDS011;5143;42.584;23.164;2024-03-07T12:32:58;3.43;;;0.83;;
10201;SDS011;5143;42.584;23.164;2024-03-07T12:35:26;1.47;;;0.80;;
10201;SDS011;5143;42.584;23.164;2024-03-07T12:37:52;3.47;;;1.03;;
10201;SDS011;5143;42.584;23.164;2024-03-07T12:40:20;1.73;;;1.00;;
10201;SDS011;5143;42.584;23.164;2024-03-07T12:42:50;1.63;;;0.87;;
10201;SDS011;5143;42.584;23.164;2024-03-07T12:45:18;1.87;;;0.90;;
10201;SDS011;5143;42.584;23.164;2024-03-07T12:47:46;1.70;;;1.00;;
10201;SDS011;5143;42.584;23.164;2024-03-07T12:50:15;2.00;;;0.80;;
10201;SDS011;5143;42.584;23.164;2024-03-07T12:55:32;1.07;;;0.90;;
10201;SDS011;5143;42.584;23.164;2024-03-07T12:57:58;2.63;;;1.03;;
10201;SDS011;5143;42.584;23.164;2024-03-07T13:00:25;7.67;;;1.63;;
10201;SDS011;5143;42.584;23.164;2024-03-07T13:02:55;3.60;;;1.23;;
10201;SDS011;5143;42.584;23.164;2024-03-07T13:05:22;3.60;;;2.13;;
10201;SDS011;5143;42.584;23.164;2024-03-07T13:07:51;1.60;;;0.80;;
10201;SDS011;5143;42.584;23.164;2024-03-07T13:10:18;2.80;;;1.60;;
10201;SDS011;5143;42.584;23.164;2024-03-07T13:12:47;1.60;;;1.00;;
10201;SDS011;5143;42.584;23.164;2024-03-07T13:15:14;2.83;;;1.13;;
10201;SDS011;5143;42.584;23.164;2024-03-07T13:17:40;10.93;;;6.90;;
10201;SDS011;5143;42.584;23.164;2024-03-07T13:20:08;4.40;;;1.43;;
10201;SDS011;5143;42.584;23.164;2024-03-07T13:22:38;2.20;;;0.90;;
10201;SDS011;5143;42.584;23.164;2024-03-07T13:25:07;1.77;;;0.87;;
10201;SDS011;5143;42.584;23.164;2024-03-07T13:27:39;1.70;;;0.97;;
10201;SDS011;5143;42.584;23.164;2024-03-07T13:30:08;2.43;;;1.27;;
10201;SDS011;5143;42.584;23.164;2024-03-07T13:32:38;1.30;;;0.80;;
10201;SDS011;5143;42.584;23.164;2024-03-07T13:35:05;2.53;;;1.37;;
10201;SDS011;5143;42.584;23.164;2024-03-07T13:37:36;2.60;;;1.33;;
10201;SDS011;5143;42.584;23.164;2024-03-07T13:40:03;4.70;;;2.27;;
10201;SDS011;5143;42.584;23.164;2024-03-07T13:42:47;6.63;;;2.30;;
10201;SDS011;5143;42.584;23.164;2024-03-07T13:45:15;3.97;;;2.17;;
10201;SDS011;5143;42.584;23.164;2024-03-07T13:47:42;5.57;;;1.77;;
10201;SDS011;5143;42.584;23.164;2024-03-07T13:50:09;4.10;;;1.70;;
10201;SDS011;5143;42.584;23.164;2024-03-07T13:52:37;1.77;;;1.40;;
10201;SDS011;5143;42.584;23.164;2024-03-07T13:55:08;3.10;;;1.70;;
10201;SDS011;5143;42.584;23.164;2024-03-07T13:57:40;2.50;;;1.60;;
10201;SDS011;5143;42.584;23.164;2024-03-07T14:00:20;2.77;;;1.80;;
10201;SDS011;5143;42.584;23.164;2024-03-07T14:11:33;2.23;;;1.30;;
10201;SDS011;5143;42.584;23.164;2024-03-07T14:14:07;1.53;;;0.90;;
10201;SDS011;5143;42.584;23.164;2024-03-07T14:22:16;2.03;;;0.90;;
10201;SDS011;5143;42.584;23.164;2024-03-07T14:27:42;2.87;;;2.33;;
10201;SDS011;5143;42.584;23.164;2024-03-07T14:30:19;2.67;;;1.60;;
10201;SDS011;5143;42.584;23.164;2024-03-07T14:32:48;2.17;;;1.40;;
10201;SDS011;5143;42.584;23.164;2024-03-07T14:35:18;1.80;;;1.50;;
10201;SDS011;5143;42.584;23.164;2024-03-07T14:37:52;1.93;;;1.70;;
10201;SDS011;5143;42.584;23.164;2024-03-07T14:40:19;3.67;;;2.00;;
10201;SDS011;5143;42.584;23.164;2024-03-07T14:42:47;4.07;;;2.73;;
10201;SDS011;5143;42.584;23.164;2024-03-07T14:45:15;4.77;;;2.60;;
10201;SDS011;5143;42.584;23.164;2024-03-07T14:47:44;4.53;;;2.93;;
10201;SDS011;5143;42.584;23.164;2024-03-07T14:50:11;3.67;;;2.70;;
10201;SDS011;5143;42.584;23.164;2024-03-07T14:52:37;3.23;;;2.60;;
10201;SDS011;5143;42.584;23.164;2024-03-07T14:55:07;4.00;;;2.63;;
10201;SDS011;5143;42.584;23.164;2024-03-07T14:57:34;3.10;;;2.27;;
10201;SDS011;5143;42.584;23.164;2024-03-07T15:00:01;3.90;;;2.53;;
10201;SDS011;5143;42.584;23.164;2024-03-07T15:02:28;4.30;;;3.17;;
10201;SDS011;5143;42.584;23.164;2024-03-07T15:04:54;3.57;;;2.83;;
10201;SDS011;5143;42.584;23.164;2024-03-07T15:07:21;5.93;;;3.90;;
10201;SDS011;5143;42.584;23.164;2024-03-07T15:09:48;6.70;;;5.10;;
10201;SDS011;5143;42.584;23.164;2024-03-07T15:12:16;5.60;;;3.73;;